Time;durP1;ratioP1;P1;durP2;ratioP2;P2;SDS_P1;SDS_P2;PMS_P1;PMS_P2;Temp;Humidity;BMP_temperature;BMP_pressure;BME280_temperature;BME280_humidity;BME280_pressure;Samples;Min_cycle;Max_cycle;Signal;HPM_P1;HPM_P2
2021/12/18 00:00:53;;;;;;;13.93;6.75;;;4.40;99.90;;;4.18;92.76;103371.88;5225924;28;20426;-72
2021/12/18 00:03:25;;;;;;;12.80;5.15;;;4.40;99.90;;;4.15;92.83;103371.56;5225701;28;20056;-72
2021/12/18 00:05:57;;;;;;;12.65;4.55;;;4.40;99.90;;;4.15;92.67;103366.38;5225076;28;20051;-71
2021/12/18 00:08:30;;;;;;;17.00;5.55;;;4.40;99.90;;;4.13;92.94;103367.00;5225566;28;20044;-72
2021/12/18 00:11:03;;;;;;;12.95;6.40;;;4.40;99.90;;;4.13;93.32;103365.31;5225341;28;20424;-72
2021/12/18 00:13:36;;;;;;;11.75;5.18;;;4.30;99.90;;;4.12;92.83;103362.59;5225625;28;20500;-71
2021/12/18 00:16:08;;;;;;;15.60;5.97;;;4.30;99.90;;;4.11;92.95;103365.91;5224955;28;20049;-71
2021/12/18 00:18:40;;;;;;;14.55;5.68;;;4.30;99.90;;;4.07;92.86;103352.72;5225298;28;20049;-72
2021/12/18 00:21:14;;;;;;;14.25;5.40;;;4.30;99.90;;;4.05;92.51;103361.06;5225406;28;20067;-72
2021/12/18 00:23:47;;;;;;;10.95;4.55;;;4.30;99.90;;;4.00;92.22;103347.69;5224218;28;20055;-71
2021/12/18 00:26:21;;;;;;;11.75;5.00;;;4.20;99.90;;;3.98;92.26;103354.38;5224297;28;20052;-73
2021/12/18 00:28:53;;;;;;;12.63;5.53;;;4.20;99.90;;;3.94;92.38;103361.63;5225657;28;20524;-71
2021/12/18 00:31:25;;;;;;;14.35;5.93;;;4.20;99.90;;;3.89;92.26;103358.56;5224852;28;20052;-72
2021/12/18 00:33:57;;;;;;;12.18;5.60;;;4.10;99.90;;;3.89;92.74;103343.09;5224639;28;20049;-71
2021/12/18 00:36:29;;;;;;;12.85;5.40;;;4.10;99.90;;;3.90;92.88;103357.81;5225672;28;20048;-71
2021/12/18 00:39:01;;;;;;;11.73;5.82;;;4.10;99.90;;;3.90;92.72;103354.31;5225228;28;20404;-71
2021/12/18 00:41:49;;;;;;;10.50;4.60;;;4.10;99.90;;;3.87;92.97;103341.13;5225097;28;20091;-71
2021/12/18 00:44:21;;;;;;;14.40;5.38;;;4.10;99.90;;;3.85;92.57;103348.72;5224064;28;20053;-72
2021/12/18 00:46:53;;;;;;;14.13;5.15;;;4.10;99.90;;;3.81;92.84;103342.31;5224913;28;20048;-71
2021/12/18 00:49:25;;;;;;;14.25;5.57;;;4.10;99.90;;;3.78;92.52;103342.00;5225075;28;20053;-72
2021/12/18 00:51:57;;;;;;;12.15;5.32;;;4.00;99.90;;;3.75;92.39;103349.41;5225418;28;20056;-71
2021/12/18 00:54:29;;;;;;;14.70;5.55;;;4.00;99.90;;;3.75;92.87;103344.25;5224652;28;20140;-72
2021/12/18 00:57:03;;;;;;;13.13;5.13;;;4.00;99.90;;;3.76;92.92;103348.66;5223803;28;20084;-71
2021/12/18 00:59:36;;;;;;;11.95;5.07;;;4.00;99.90;;;3.73;92.76;103345.78;5224809;28;20088;-71
2021/12/18 01:02:08;;;;;;;9.95;4.43;;;4.00;99.90;;;3.71;92.61;103352.44;5224997;28;20167;-73
2021/12/18 01:04:40;;;;;;;12.77;4.60;;;4.00;99.90;;;3.70;92.41;103352.28;5224746;28;20049;-71
2021/12/18 01:07:12;;;;;;;12.80;4.70;;;4.00;99.90;;;3.66;92.62;103347.56;5225303;28;20486;-72
2021/12/18 01:09:57;;;;;;;11.13;5.00;;;3.90;99.90;;;3.64;92.39;103355.13;5224940;28;20136;-72
2021/12/18 01:12:37;;;;;;;13.77;5.22;;;3.90;99.90;;;3.62;92.27;103351.50;5224915;28;20186;-71
2021/12/18 01:15:17;;;;;;;13.77;5.32;;;3.90;99.90;;;3.59;92.22;103350.28;5224865;28;20057;-72
2021/12/18 01:23:33;;;;;;;15.57;5.05;;;3.80;99.90;;;3.52;92.58;103349.66;5224679;28;20558;-71
2021/12/18 01:26:05;;;;;;;17.33;5.72;;;3.80;99.90;;;3.50;92.43;103345.06;5224296;28;20060;-71
2021/12/18 01:28:38;;;;;;;13.43;5.07;;;3.80;99.90;;;3.52;92.73;103341.91;5224635;28;20049;-72
2021/12/18 01:31:11;;;;;;;14.45;6.32;;;3.80;99.90;;;3.52;92.68;103348.69;5224353;28;20049;-71
2021/12/18 01:33:43;;;;;;;12.07;5.38;;;3.80;99.90;;;3.51;92.74;103349.47;5235625;28;20044;-71
2021/12/18 01:36:15;;;;;;;12.60;4.82;;;3.80;99.90;;;3.50;92.79;103350.22;5246830;28;20058;-72
2021/12/18 01:38:47;;;;;;;16.48;5.72;;;3.80;99.90;;;3.47;92.81;103350.81;5249569;28;20058;-71
2021/12/18 01:41:19;;;;;;;15.48;5.40;;;3.70;99.90;;;3.46;92.67;103361.91;5249412;28;20051;-71
2021/12/18 01:47:06;;;;;;;14.52;5.88;;;3.70;99.90;;;3.50;93.42;103357.97;5201327;28;20131;-72
2021/12/18 01:52:32;;;;;;;13.52;4.95;;;3.80;99.90;;;3.57;93.13;103368.16;5249255;28;20048;-72
2021/12/18 01:55:06;;;;;;;13.82;5.50;;;3.80;99.90;;;3.59;93.52;103361.50;5248767;28;20049;-72
2021/12/18 01:57:39;;;;;;;14.63;4.75;;;3.80;99.90;;;3.61;93.34;103370.31;5249220;28;20051;-72
2021/12/18 02:00:18;;;;;;;12.63;5.25;;;3.80;99.90;;;3.64;93.60;103372.28;5248762;28;20059;-72
2021/12/18 02:02:50;;;;;;;15.00;6.18;;;3.90;99.90;;;3.68;93.65;103364.13;5249186;28;20410;-71
2021/12/18 02:05:23;;;;;;;18.75;5.97;;;3.90;99.90;;;3.70;93.77;103368.66;5248431;28;20139;-72
2021/12/18 02:07:55;;;;;;;14.57;5.00;;;3.90;99.90;;;3.78;93.71;103372.03;5248973;28;20044;-71
2021/12/18 02:10:30;;;;;;;13.93;5.72;;;4.00;99.90;;;3.83;93.81;103373.44;5248783;28;20601;-72
2021/12/18 02:13:09;;;;;;;16.05;6.28;;;4.00;99.90;;;3.88;93.81;103372.22;5248777;28;20404;-71
2021/12/18 02:21:28;;;;;;;15.65;5.68;;;4.20;99.90;;;4.02;93.69;103364.22;5248607;28;20063;-72
2021/12/18 02:24:01;;;;;;;18.58;6.70;;;4.20;99.90;;;4.06;93.96;103353.47;5247774;28;20086;-72
2021/12/18 02:26:33;;;;;;;15.68;5.22;;;4.30;99.90;;;4.07;93.63;103359.53;5248498;28;20131;-72
2021/12/18 02:29:08;;;;;;;14.52;5.80;;;4.30;99.90;;;4.11;93.76;103358.16;5248242;28;20049;-72
2021/12/18 02:31:40;;;;;;;16.20;7.25;;;4.30;99.90;;;4.15;93.56;103352.56;5248465;28;20447;-72
2021/12/18 02:34:17;;;;;;;16.83;6.32;;;4.30;99.90;;;4.18;94.04;103352.91;5247790;28;20040;-72
2021/12/18 02:36:51;;;;;;;13.63;7.28;;;4.40;99.90;;;4.24;93.97;103349.25;5248473;28;20466;-71
2021/12/18 02:39:36;;;;;;;14.32;6.00;;;4.40;99.90;;;4.28;94.01;103350.47;5248151;28;20056;-73
2021/12/18 02:42:12;;;;;;;18.85;6.60;;;4.50;99.90;;;4.30;94.30;103349.88;5248480;28;20053;-71
2021/12/18 02:44:44;;;;;;;;;;;4.50;99.90;;;4.36;94.29;103341.81;5247637;28;20095;-71
2021/12/18 02:47:17;;;;;;;17.60;6.43;;;4.50;99.90;;;4.39;94.42;103338.63;5247598;28;19924;-72
2021/12/18 02:49:51;;;;;;;19.70;7.00;;;4.60;99.90;;;4.41;94.37;103339.69;5247500;28;20047;-71
2021/12/18 02:52:30;;;;;;;16.65;6.68;;;4.60;99.90;;;4.42;94.68;103344.09;5246890;28;20147;-72
2021/12/18 02:55:03;;;;;;;18.60;6.60;;;4.70;99.90;;;4.44;94.55;103335.75;5247439;28;20145;-72
2021/12/18 02:57:35;;;;;;;19.35;7.32;;;4.60;99.90;;;4.47;94.60;103338.63;5248371;28;20052;-71
2021/12/18 03:00:09;;;;;;;17.60;6.03;;;4.70;99.90;;;4.50;94.75;103335.44;5248024;28;20053;-71
2021/12/18 03:02:44;;;;;;;19.70;6.65;;;4.70;99.90;;;4.55;94.71;103342.88;5246199;28;20048;-71
2021/12/18 03:05:23;;;;;;;18.83;5.70;;;4.70;99.90;;;4.58;94.85;103330.28;5247373;28;20052;-71
2021/12/18 03:08:03;;;;;;;15.88;6.13;;;4.70;99.90;;;4.62;95.19;103328.91;5247591;28;20044;-71
2021/12/18 03:22:48;;;;;;;16.30;7.35;;;4.90;99.90;;;4.78;96.03;103333.94;5162970;28;20415;-71
2021/12/18 03:25:24;;;;;;;14.20;6.35;;;4.90;99.90;;;4.84;95.88;103330.28;5246916;28;20053;-72
2021/12/18 03:27:58;;;;;;;14.85;6.35;;;5.00;99.90;;;4.87;95.70;103321.88;5247665;28;20067;-70
2021/12/18 03:30:31;;;;;;;18.30;6.40;;;5.00;99.90;;;4.92;96.00;103324.94;5247393;28;20044;-72
2021/12/18 03:33:04;;;;;;;15.13;6.88;;;5.10;99.90;;;4.97;96.44;103321.13;5247121;28;20049;-72
2021/12/18 03:35:36;;;;;;;15.98;7.18;;;5.10;99.90;;;4.98;96.17;103316.09;5246599;28;20411;-72
2021/12/18 03:38:09;;;;;;;19.90;8.07;;;5.10;99.90;;;5.00;96.19;103319.72;5246850;28;20381;-71
2021/12/18 03:40:43;;;;;;;15.65;6.82;;;5.20;99.90;;;5.02;96.29;103327.63;5247161;28;20045;-72
2021/12/18 03:43:15;;;;;;;16.90;6.65;;;5.20;99.90;;;5.03;96.15;103322.63;5246822;28;20485;-72
2021/12/18 03:45:47;;;;;;;15.90;5.90;;;5.20;99.90;;;5.05;95.76;103326.28;5246284;28;20044;-72
2021/12/18 03:48:19;;;;;;;14.98;5.75;;;5.20;99.90;;;5.07;95.66;103322.16;5246806;28;20055;-71
2021/12/18 03:50:52;;;;;;;15.35;6.43;;;5.20;99.90;;;5.08;96.21;103313.63;5246904;28;20044;-71
2021/12/18 03:53:24;;;;;;;20.23;7.20;;;5.20;99.90;;;5.09;96.01;103309.41;5246667;28;20746;-72
2021/12/18 03:55:58;;;;;;;17.20;6.25;;;5.30;99.90;;;5.10;96.08;103312.13;5246266;28;20564;-71
2021/12/18 03:58:30;;;;;;;21.80;6.55;;;5.30;99.90;;;5.11;96.19;103307.84;5246191;28;20048;-72
2021/12/18 04:01:02;;;;;;;21.52;7.28;;;5.30;99.90;;;5.12;95.61;103308.00;5246578;28;20048;-71
2021/12/18 04:03:34;;;;;;;18.35;7.25;;;5.30;99.90;;;5.11;95.65;103298.44;5246426;28;20052;-71
2021/12/18 04:06:06;;;;;;;17.48;7.57;;;5.30;99.90;;;5.17;95.76;103299.03;5246322;28;20416;-72
2021/12/18 04:08:38;;;;;;;21.33;7.97;;;5.30;99.90;;;5.14;95.88;103309.03;5246501;28;20048;-71
2021/12/18 04:11:12;;;;;;;21.50;8.27;;;5.30;99.90;;;5.12;96.37;103313.16;5246505;28;20054;-71
2021/12/18 04:13:46;;;;;;;18.20;6.70;;;5.30;99.90;;;5.16;96.55;103312.72;5246448;28;20044;-72
2021/12/18 04:16:18;;;;;;;22.00;8.15;;;5.30;99.90;;;5.12;96.16;103310.59;5246509;28;20490;-71
2021/12/18 04:18:50;;;;;;;17.70;6.65;;;5.30;99.90;;;5.11;96.42;103321.69;5246409;28;20508;-72
2021/12/18 04:21:22;;;;;;;21.17;7.13;;;5.40;99.90;;;5.11;96.57;103315.63;5246698;28;20050;-72
2021/12/18 04:23:54;;;;;;;14.93;6.20;;;5.30;99.90;;;5.13;96.64;103333.09;5245687;28;20477;-71
2021/12/18 04:26:27;;;;;;;19.38;6.82;;;5.30;99.90;;;5.15;96.54;103326.41;5246155;28;20058;-72
2021/12/18 04:29:01;;;;;;;20.70;8.07;;;5.40;99.90;;;5.14;96.79;103331.41;5246281;28;20044;-71
2021/12/18 04:31:34;;;;;;;19.95;7.13;;;5.40;99.90;;;5.13;96.90;103339.94;5246429;28;20074;-71
2021/12/18 04:34:07;;;;;;;23.10;7.55;;;5.30;99.90;;;5.13;97.54;103337.34;5245414;28;20049;-72
2021/12/18 04:36:40;;;;;;;19.67;7.13;;;5.40;99.90;;;5.15;97.23;103341.94;5246297;28;20041;-72
2021/12/18 04:39:11;;;;;;;23.15;7.90;;;5.40;99.90;;;5.13;97.63;103342.53;5246478;28;20484;-71
2021/12/18 04:41:49;;;;;;;21.98;8.15;;;5.30;99.90;;;5.14;97.59;103342.66;5246461;28;20409;-71
2021/12/18 04:44:21;;;;;;;21.60;7.30;;;5.30;99.90;;;5.16;97.75;103342.84;5245846;28;20048;-72
2021/12/18 04:46:53;;;;;;;22.17;8.52;;;5.40;99.90;;;5.14;98.04;103339.16;5246126;28;20397;-71
2021/12/18 04:49:25;;;;;;;22.33;7.82;;;5.40;99.90;;;5.16;98.08;103340.25;5246101;28;20044;-71
2021/12/18 04:51:58;;;;;;;20.65;7.80;;;5.40;99.90;;;5.18;98.06;103339.63;5246303;28;20428;-71
2021/12/18 04:54:30;;;;;;;21.15;7.70;;;5.40;99.90;;;5.23;98.08;103350.44;5245575;28;20504;-71
2021/12/18 04:57:03;;;;;;;23.85;8.70;;;5.40;99.90;;;5.25;98.64;103338.53;5246020;28;20682;-72
2021/12/18 04:59:42;;;;;;;22.80;7.15;;;5.40;99.90;;;5.28;98.77;103343.09;5246299;28;20048;-72
2021/12/18 05:02:19;;;;;;;23.55;8.30;;;5.40;99.90;;;5.30;98.79;103347.66;5246115;28;20409;-71
2021/12/18 05:04:52;;;;;;;21.13;8.27;;;5.50;99.90;;;5.32;98.21;103346.13;5245571;28;20045;-72
2021/12/18 05:07:25;;;;;;;25.85;7.68;;;5.50;99.90;;;5.33;98.65;103347.03;5245990;28;20059;-72
2021/12/18 05:09:57;;;;;;;24.13;8.27;;;5.50;99.90;;;5.34;98.80;103344.59;5246089;28;20100;-71
2021/12/18 05:12:31;;;;;;;28.80;9.15;;;5.50;99.90;;;5.37;98.48;103334.56;5249185;28;20048;-72
2021/12/18 05:15:03;;;;;;;24.90;8.02;;;5.50;99.90;;;5.36;98.37;103337.91;5249563;28;20044;-72
2021/12/18 05:17:35;;;;;;;29.45;7.97;;;5.50;99.90;;;5.37;99.26;103333.66;5309529;22;20109;-73
2021/12/18 05:20:09;;;;;;;26.10;8.13;;;5.50;99.90;;;5.38;98.91;103343.22;5229207;28;20055;-73
2021/12/18 05:22:41;;;;;;;26.27;8.13;;;5.50;99.90;;;5.40;99.30;103339.09;5247762;28;20130;-72
2021/12/18 05:25:13;;;;;;;26.02;8.32;;;5.50;99.90;;;5.43;98.78;103342.00;5250201;28;20063;-73
2021/12/18 05:27:47;;;;;;;27.95;9.52;;;5.60;99.90;;;5.42;99.11;103338.50;5250254;28;20169;-73
2021/12/18 05:30:19;;;;;;;24.08;8.30;;;5.60;99.90;;;5.42;99.38;103340.19;5249883;28;20045;-73
2021/12/18 05:32:51;;;;;;;24.63;8.05;;;5.60;99.90;;;5.44;99.43;103333.47;5249473;28;20051;-73
2021/12/18 05:35:23;;;;;;;29.50;8.98;;;5.60;99.90;;;5.45;99.27;103333.59;5250589;28;20102;-72
2021/12/18 05:38:04;;;;;;;23.20;7.88;;;5.60;99.90;;;5.44;99.11;103336.97;5249793;28;20048;-73
2021/12/18 05:40:38;;;;;;;26.60;7.80;;;5.60;99.90;;;5.44;99.34;103334.38;5249604;28;20147;-74
2021/12/18 05:43:12;;;;;;;26.33;7.30;;;5.60;99.90;;;5.49;99.45;103327.06;5249376;28;20056;-72
2021/12/18 05:45:44;;;;;;;26.48;7.90;;;5.60;99.90;;;5.48;99.18;103337.25;5249835;28;20080;-73
2021/12/18 05:48:16;;;;;;;21.08;7.50;;;5.60;99.90;;;5.47;99.27;103340.59;5249582;28;20137;-74
2021/12/18 05:50:48;;;;;;;22.83;7.97;;;5.60;99.90;;;5.47;99.53;103343.19;5249468;28;20412;-73
2021/12/18 05:53:20;;;;;;;23.38;7.53;;;5.60;99.90;;;5.46;99.00;103339.69;5251237;28;20044;-73
2021/12/18 05:55:52;;;;;;;20.95;7.57;;;5.60;99.90;;;5.44;99.57;103336.97;5249245;28;20052;-73
2021/12/18 05:58:25;;;;;;;21.90;6.88;;;5.60;99.90;;;5.46;99.67;103344.88;5249394;28;20064;-73
2021/12/18 06:00:57;;;;;;;27.77;9.30;;;5.60;99.90;;;5.40;99.63;103340.00;5249291;28;20079;-74
2021/12/18 06:03:29;;;;;;;28.58;8.20;;;5.60;99.90;;;5.36;99.68;103340.50;5249161;28;20044;-73
2021/12/18 06:06:01;;;;;;;23.90;7.68;;;5.60;99.90;;;5.27;100.00;103337.00;5249145;28;20049;-73
2021/12/18 06:08:35;;;;;;;29.25;7.78;;;5.50;99.90;;;5.27;100.00;103342.19;5249600;28;20135;-73
2021/12/18 06:11:10;;;;;;;23.90;6.70;;;5.50;99.90;;;5.29;99.81;103330.31;5249260;28;20071;-74
2021/12/18 06:13:46;;;;;;;24.25;7.85;;;5.50;99.90;;;5.26;99.73;103330.00;5250316;28;20048;-72
2021/12/18 06:16:19;;;;;;;24.83;7.57;;;5.50;99.90;;;5.28;99.73;103327.56;5249240;28;20531;-72
2021/12/18 06:18:52;;;;;;;26.58;7.25;;;5.40;99.90;;;5.27;99.63;103326.66;5248505;28;20489;-73
2021/12/18 06:21:24;;;;;;;27.73;8.25;;;5.50;99.90;;;5.28;99.77;103343.09;5248928;28;20045;-73
2021/12/18 06:23:57;;;;;;;25.13;7.80;;;5.50;99.90;;;5.28;99.77;103343.09;5248866;28;20054;-73
2021/12/18 06:26:29;;;;;;;25.55;7.63;;;5.50;99.90;;;5.28;99.86;103345.69;5248600;28;20048;-73
2021/12/18 06:29:02;;;;;;;21.58;7.28;;;5.50;99.90;;;5.29;100.00;103355.28;5248933;28;20400;-73
2021/12/18 06:31:37;;;;;;;23.08;7.45;;;5.40;99.90;;;5.26;100.00;103354.97;5248691;28;20049;-73
2021/12/18 06:34:09;;;;;;;22.77;7.00;;;5.40;99.90;;;5.24;99.84;103356.50;5248612;28;20477;-73
2021/12/18 06:36:41;;;;;;;20.38;6.38;;;5.40;99.90;;;5.12;100.00;103359.72;5248667;28;20048;-73
2021/12/18 06:39:13;;;;;;;21.40;5.85;;;5.40;99.90;;;5.00;100.00;103360.19;5248045;28;20041;-74
2021/12/18 06:41:45;;;;;;;21.90;6.47;;;5.30;99.90;;;4.97;100.00;103355.66;5248238;28;20041;-73
2021/12/18 06:44:18;;;;;;;22.45;7.70;;;5.30;99.90;;;4.99;100.00;103354.13;5248283;28;20041;-73
2021/12/18 06:46:51;;;;;;;27.23;7.95;;;5.20;99.90;;;4.99;100.00;103358.38;5248496;28;20544;-72
2021/12/18 06:49:23;;;;;;;21.15;7.63;;;5.20;99.90;;;4.91;100.00;103357.63;5248240;28;20404;-73
2021/12/18 06:51:55;;;;;;;25.00;7.85;;;5.20;99.90;;;4.93;100.00;103350.94;5248491;28;20481;-73
2021/12/18 06:54:27;;;;;;;21.00;6.20;;;5.20;99.90;;;4.97;100.00;103363.41;5247929;28;20454;-73
2021/12/18 06:56:59;;;;;;;19.35;5.72;;;5.20;99.90;;;4.97;100.00;103366.00;5248408;28;20055;-73
2021/12/18 06:59:32;;;;;;;23.50;6.30;;;5.20;99.90;;;4.99;100.00;103360.97;5247704;28;20055;-75
2021/12/18 07:02:04;;;;;;;21.85;7.00;;;5.20;99.90;;;4.98;100.00;103356.56;5247951;28;20405;-75
2021/12/18 07:04:37;;;;;;;18.50;6.30;;;5.20;99.90;;;4.99;100.00;103369.63;5247137;28;20047;-74
2021/12/18 07:07:09;;;;;;;21.90;6.28;;;5.20;99.90;;;5.01;100.00;103362.91;5247562;28;20071;-74
2021/12/18 07:09:41;;;;;;;19.50;5.70;;;5.20;99.90;;;5.03;100.00;103366.59;5247739;28;20139;-74
2021/12/18 07:12:13;;;;;;;23.52;7.43;;;5.20;99.90;;;5.07;100.00;103362.63;5247588;28;20499;-74
2021/12/18 07:14:47;;;;;;;19.65;6.53;;;5.20;99.90;;;5.09;100.00;103364.59;5247155;28;20067;-73
2021/12/18 07:17:19;;;;;;;20.80;7.65;;;5.30;99.90;;;5.10;100.00;103358.66;5247055;28;20453;-74
2021/12/18 07:19:51;;;;;;;19.20;7.32;;;5.30;99.90;;;5.16;100.00;103364.44;5247674;28;20048;-74
2021/12/18 07:22:24;;;;;;;20.27;7.40;;;5.30;99.90;;;5.14;100.00;103365.94;5247542;28;20049;-74
2021/12/18 07:24:56;;;;;;;19.08;7.03;;;5.30;99.90;;;5.13;100.00;103368.38;5246898;28;20070;-74
2021/12/18 07:27:28;;;;;;;22.13;7.40;;;5.30;99.90;;;5.07;100.00;103372.97;5247166;28;20404;-74
2021/12/18 07:30:01;;;;;;;18.95;5.80;;;5.20;99.90;;;5.03;100.00;103374.34;5247308;28;20055;-75
2021/12/18 07:32:33;;;;;;;18.55;5.80;;;5.30;99.90;;;5.04;100.00;103373.59;5247151;28;20548;-73
2021/12/18 07:35:07;;;;;;;21.52;6.35;;;5.20;99.90;;;5.02;100.00;103374.19;5246213;28;20044;-74
2021/12/18 07:37:39;;;;;;;18.10;6.00;;;5.20;99.90;;;5.01;100.00;103373.25;5247049;28;20158;-74
2021/12/18 07:40:13;;;;;;;16.90;6.43;;;5.20;99.90;;;4.99;100.00;103374.81;5246753;28;20056;-75
2021/12/18 07:42:45;;;;;;;19.85;6.30;;;5.20;99.90;;;4.94;100.00;103369.94;5246746;28;20059;-75
2021/12/18 07:45:18;;;;;;;19.75;6.28;;;5.20;99.90;;;4.92;100.00;103374.97;5246780;28;20050;-74
2021/12/18 07:47:50;;;;;;;18.77;5.35;;;5.20;99.90;;;4.93;100.00;103363.84;5247177;28;20087;-74
2021/12/18 07:50:23;;;;;;;17.45;5.93;;;5.20;99.90;;;4.97;100.00;103371.16;5246737;28;20045;-74
2021/12/18 07:52:55;;;;;;;18.10;5.53;;;5.20;99.90;;;4.96;100.00;103361.59;5246800;28;20048;-74
2021/12/18 07:55:29;;;;;;;19.15;6.25;;;5.20;99.90;;;4.98;100.00;103367.81;5246182;28;20044;-74
2021/12/18 07:58:01;;;;;;;21.63;5.95;;;5.20;99.90;;;4.98;100.00;103372.97;5246860;28;20060;-73
2021/12/18 08:00:34;;;;;;;18.45;5.80;;;5.20;99.90;;;5.00;100.00;103371.44;5246650;28;20054;-74
2021/12/18 08:03:06;;;;;;;19.30;6.28;;;5.20;99.90;;;4.99;100.00;103368.72;5246962;28;20068;-74
2021/12/18 08:05:38;;;;;;;19.83;6.03;;;5.20;99.90;;;4.98;100.00;103362.63;5245724;28;20059;-75
2021/12/18 08:08:10;;;;;;;19.77;6.65;;;5.20;99.90;;;5.01;100.00;103365.50;5246555;28;20412;-74
2021/12/18 08:10:42;;;;;;;20.73;6.22;;;5.20;99.90;;;5.05;100.00;103378.00;5231574;28;20477;-74
2021/12/18 08:13:14;;;;;;;17.63;5.70;;;5.20;99.90;;;5.04;100.00;103363.25;5225796;28;20485;-75
2021/12/18 08:15:48;;;;;;;21.80;7.25;;;5.20;99.90;;;5.02;100.00;103369.94;5222588;28;20076;-73
2021/12/18 08:18:21;;;;;;;20.27;6.80;;;5.20;99.90;;;5.04;100.00;103364.91;5215196;28;20151;-73
2021/12/18 08:20:53;;;;;;;24.48;7.40;;;5.20;99.90;;;5.06;100.00;103372.03;5208867;28;20059;-74
2021/12/18 08:23:25;;;;;;;17.23;5.47;;;5.30;99.90;;;5.07;100.00;103368.69;5204500;28;20053;-73
2021/12/18 08:25:57;;;;;;;19.20;6.55;;;5.20;99.90;;;5.09;100.00;103366.28;5206130;28;20041;-75
2021/12/18 08:28:29;;;;;;;20.15;6.22;;;5.30;99.90;;;5.10;100.00;103368.09;5216298;28;20063;-75
2021/12/18 08:31:03;;;;;;;18.52;5.75;;;5.30;99.90;;;5.13;100.00;103358.94;5205125;28;20053;-73
2021/12/18 08:33:35;;;;;;;16.15;6.38;;;5.30;99.90;;;5.16;100.00;103364.44;5217048;28;20047;-73
2021/12/18 08:36:07;;;;;;;16.75;5.40;;;5.30;99.90;;;5.14;100.00;103360.78;5210454;28;20103;-74
2021/12/18 08:38:40;;;;;;;19.42;6.30;;;5.30;99.90;;;5.18;100.00;103356.81;5204700;28;20049;-75
2021/12/18 08:41:12;;;;;;;19.33;6.53;;;5.30;99.90;;;5.20;100.00;103350.09;5214921;28;20051;-74
2021/12/18 08:43:44;;;;;;;24.08;7.07;;;5.40;99.90;;;5.23;100.00;103355.59;5204642;28;20041;-75
2021/12/18 08:46:18;;;;;;;18.80;5.57;;;5.40;99.90;;;5.23;100.00;103350.44;5205922;28;20490;-69
2021/12/18 08:48:50;;;;;;;17.48;6.15;;;5.40;99.90;;;5.27;100.00;103354.19;5209009;28;20514;-71
2021/12/18 08:51:22;;;;;;;20.35;7.45;;;5.40;99.90;;;5.32;100.00;103356.47;5209126;28;20429;-70
2021/12/18 08:53:54;;;;;;;17.75;5.93;;;5.50;99.90;;;5.38;100.00;103353.56;5208099;28;20054;-71
2021/12/18 08:56:26;;;;;;;18.63;7.30;;;5.50;99.90;;;5.41;100.00;103353.84;5209021;28;20410;-70
2021/12/18 08:59:00;;;;;;;19.33;6.22;;;5.60;99.90;;;5.42;100.00;103353.13;5208857;28;20045;-71
2021/12/18 09:01:33;;;;;;;19.33;6.78;;;5.60;99.90;;;5.41;100.00;103348.69;5208899;28;20148;-69
2021/12/18 09:04:05;;;;;;;18.45;5.70;;;5.60;99.90;;;5.44;100.00;103352.47;5208406;28;20049;-70
2021/12/18 09:06:37;;;;;;;19.92;6.20;;;5.60;99.90;;;5.46;100.00;103352.63;5208888;28;20052;-70
2021/12/18 09:09:09;;;;;;;17.83;5.47;;;5.60;99.90;;;5.47;100.00;103346.69;5208908;28;20045;-70
2021/12/18 09:11:41;;;;;;;19.95;5.35;;;5.60;99.90;;;5.53;100.00;103352.44;5208752;28;20064;-70
2021/12/18 09:14:13;;;;;;;21.77;7.90;;;5.60;99.90;;;5.59;100.00;103360.78;5207956;28;20409;-70
2021/12/18 09:16:47;;;;;;;21.23;6.75;;;5.70;99.90;;;5.58;100.00;103352.91;5208683;28;20500;-70
2021/12/18 09:19:19;;;;;;;24.42;7.07;;;5.70;99.90;;;5.59;100.00;103358.22;5207980;28;20071;-72
2021/12/18 09:21:51;;;;;;;20.45;6.32;;;5.70;99.90;;;5.64;100.00;103364.75;5208206;28;20067;-70
2021/12/18 09:24:23;;;;;;;19.67;7.03;;;5.70;99.90;;;5.70;100.00;103374.78;5207651;28;20056;-69
2021/12/18 09:26:55;;;;;;;21.95;6.85;;;5.80;99.90;;;5.67;99.78;103366.69;5208523;28;20045;-69
2021/12/18 09:29:27;;;;;;;24.73;7.63;;;5.80;99.90;;;5.73;100.00;103362.09;5208672;28;20054;-69
2021/12/18 09:32:01;;;;;;;23.40;6.80;;;5.90;99.90;;;5.85;100.00;103362.38;5208361;28;20051;-69
2021/12/18 09:34:33;;;;;;;26.73;7.57;;;6.00;99.90;;;5.95;100.00;103359.91;5207538;28;20057;-69
2021/12/18 09:37:05;;;;;;;21.98;7.80;;;6.00;99.90;;;6.05;99.63;103362.59;5208276;28;20398;-69
2021/12/18 09:39:38;;;;;;;23.48;8.05;;;6.10;99.90;;;6.12;99.55;103357.22;5208485;28;20049;-70
2021/12/18 09:42:10;;;;;;;23.70;7.25;;;6.20;99.90;;;6.18;98.53;103362.06;5208268;28;20132;-69
2021/12/18 09:44:42;;;;;;;20.23;6.97;;;6.30;99.90;;;6.24;97.93;103368.72;5207739;28;20049;-69
2021/12/18 09:47:15;;;;;;;28.23;8.43;;;6.30;99.90;;;6.27;97.77;103362.94;5208040;28;20049;-69
2021/12/18 09:49:49;;;;;;;26.05;7.72;;;6.40;99.90;;;6.41;98.99;103364.22;5208260;28;20049;-70
2021/12/18 09:52:21;;;;;;;20.45;7.95;;;6.50;99.90;;;6.41;98.28;103369.38;5208029;28;20414;-73
2021/12/18 09:54:57;;;;;;;22.80;7.53;;;6.50;99.90;;;6.36;98.14;103365.44;5223147;28;20055;-70
2021/12/18 09:57:29;;;;;;;22.13;7.88;;;6.50;99.90;;;6.32;97.81;103366.84;5227745;28;20045;-70
2021/12/18 10:00:01;;;;;;;23.65;8.73;;;6.50;99.90;;;6.23;97.98;103364.31;5228436;28;20158;-70
2021/12/18 10:02:35;;;;;;;25.27;7.75;;;6.40;99.90;;;6.19;98.39;103364.81;5228658;28;20057;-70
2021/12/18 10:05:08;;;;;;;25.48;8.35;;;6.40;99.90;;;6.14;98.40;103363.47;5228081;28;20045;-70
2021/12/18 10:07:40;;;;;;;23.10;7.22;;;6.30;99.90;;;6.12;98.73;103358.91;5228051;28;20041;-73
2021/12/18 10:10:12;;;;;;;22.73;7.68;;;6.30;99.90;;;6.12;98.47;103354.63;5227871;28;20056;-71
2021/12/18 10:12:44;;;;;;;22.02;8.25;;;6.30;99.90;;;6.10;98.72;103344.91;5228316;28;20053;-73
2021/12/18 10:15:17;;;;;;;24.52;7.68;;;6.30;99.90;;;6.09;98.82;103338.81;5227825;28;20853;-68
2021/12/18 10:18:05;;;;;;;23.65;6.88;;;6.20;99.90;;;6.06;98.60;103335.91;5228106;28;20099;-69
2021/12/18 10:20:39;;;;;;;23.25;8.13;;;6.20;99.90;;;6.04;99.08;103339.16;5228019;28;20060;-73
2021/12/18 10:23:11;;;;;;;23.85;7.70;;;6.20;99.90;;;6.01;99.00;103334.59;5228326;28;20049;-71
2021/12/18 10:25:44;;;;;;;27.73;7.43;;;6.20;99.90;;;6.00;98.80;103332.78;5227830;28;20040;-71
2021/12/18 10:28:19;;;;;;;24.67;7.68;;;6.10;99.90;;;6.94;100.00;103339.66;5228190;28;20118;-69
2021/12/18 10:30:54;;;;;;;23.42;7.75;;;6.80;99.90;;;6.88;100.00;103336.50;5228408;28;20052;-70
2021/12/18 10:33:29;;;;;;;;;;;7.00;99.90;;;6.70;100.00;103331.47;5228246;28;20053;-70
2021/12/18 10:36:03;;;;;;;24.48;7.13;;;6.90;99.90;;;6.58;100.00;103325.16;5227416;28;19921;-69
2021/12/18 10:38:44;;;;;;;23.83;8.60;;;6.90;99.90;;;6.55;100.00;103327.50;5227713;28;20420;-70
2021/12/18 10:41:28;;;;;;;23.13;7.85;;;6.80;99.90;;;6.45;100.00;103315.38;5227768;28;20107;-72
2021/12/18 10:44:04;;;;;;;22.92;7.57;;;6.70;99.90;;;6.43;100.00;103313.41;5226715;28;20053;-70
2021/12/18 10:46:38;;;;;;;26.63;7.47;;;6.60;99.90;;;6.39;100.00;103314.84;5227494;28;20088;-69
2021/12/18 10:49:14;;;;;;;22.83;6.70;;;6.50;99.90;;;6.37;100.00;103310.28;5227351;28;20049;-71
2021/12/18 10:51:48;;;;;;;26.77;7.47;;;6.50;99.90;;;6.34;100.00;103310.00;5228422;28;20473;-70
2021/12/18 10:54:23;;;;;;;21.70;6.53;;;6.50;99.90;;;6.37;100.00;103302.50;5227595;28;20055;-70
2021/12/18 10:56:56;;;;;;;22.38;7.55;;;6.50;99.90;;;6.41;100.00;103299.44;5227746;28;20480;-70
2021/12/18 10:59:31;;;;;;;25.25;7.97;;;6.50;99.90;;;6.45;100.00;103294.63;5227929;28;20409;-70
2021/12/18 11:02:06;;;;;;;27.35;8.38;;;6.50;99.90;;;6.46;100.00;103290.41;5227489;28;20091;-68
2021/12/18 11:04:42;;;;;;;26.88;8.05;;;6.50;99.90;;;6.48;99.89;103299.22;5227639;28;20477;-71
2021/12/18 11:07:22;;;;;;;21.10;7.28;;;6.50;99.90;;;6.48;100.00;103288.84;5227770;28;20400;-69
2021/12/18 11:10:12;;;;;;;21.85;7.30;;;6.60;99.90;;;6.49;99.95;103288.97;5226903;28;20049;-69
2021/12/18 11:15:35;;;;;;;19.13;6.78;;;6.50;99.90;;;6.53;100.00;103283.31;5227467;28;20554;-70